Time;durP1;ratioP1;P1;durP2;ratioP2;P2;SDS_P1;SDS_P2;PMS_P1;PMS_P2;Temp;Humidity;BMP_temperature;BMP_pressure;BME280_temperature;BME280_humidity;BME280_pressure;Samples;Min_cycle;Max_cycle;Signal;HPM_P1;HPM_P2
2022/04/28 00:00:43;;;;;;;1.77;1.45;;;12.90;99.90;;;;;;4937492;28;20483;-82
2022/04/28 00:03:26;;;;;;;3.72;1.40;;;12.90;99.90;;;;;;4940365;28;20075;-82
2022/04/28 00:05:57;;;;;;;1.50;1.40;;;12.90;99.90;;;;;;4924301;28;20043;-83
2022/04/28 00:08:29;;;;;;;1.50;1.40;;;12.90;99.90;;;;;;4944169;28;20031;-81
2022/04/28 00:10:55;;;;;;;1.13;1.13;;;12.90;99.90;;;;;;4920919;28;20035;-81
2022/04/28 00:13:46;;;;;;;1.90;1.45;;;12.90;99.90;;;;;;4938231;28;20039;-81
2022/04/28 00:16:13;;;;;;;1.42;1.33;;;12.90;99.90;;;;;;4938477;28;20588;-81
2022/04/28 00:18:41;;;;;;;1.38;1.23;;;12.90;99.90;;;;;;4936689;29;20036;-82
2022/04/28 00:21:10;;;;;;;2.85;1.17;;;12.80;99.90;;;;;;4936887;28;20483;-81
2022/04/28 00:23:42;;;;;;;1.88;1.38;;;12.90;99.90;;;;;;4921304;29;20023;-81
2022/04/28 00:26:11;;;;;;;3.72;1.15;;;12.80;99.90;;;;;;4938734;28;20042;-82
2022/04/28 00:28:40;;;;;;;1.60;1.50;;;12.80;99.90;;;;;;4924058;29;20373;-81
2022/04/28 00:31:26;;;;;;;3.55;1.75;;;12.70;99.90;;;;;;4940122;28;20390;-81
2022/04/28 00:33:57;;;;;;;1.45;1.35;;;12.80;99.90;;;;;;4913341;29;20027;-81
2022/04/28 00:36:23;;;;;;;1.50;1.40;;;12.90;99.90;;;;;;4937252;28;20373;-81
2022/04/28 00:38:49;;;;;;;1.73;1.50;;;12.90;99.90;;;;;;4938777;29;20099;-82
2022/04/28 00:41:16;;;;;;;1.50;1.40;;;13.00;99.90;;;;;;4938039;28;20394;-81
2022/04/28 00:44:13;;;;;;;1.77;1.50;;;13.00;99.90;;;;;;4938283;28;20479;-82
2022/04/28 00:46:40;;;;;;;2.33;1.83;;;13.00;99.90;;;;;;4939310;28;20038;-81
2022/04/28 00:51:54;;;;;;;3.15;1.48;;;13.10;99.90;;;;;;4940737;28;20066;-81
2022/04/28 00:54:31;;;;;;;2.63;1.55;;;13.10;99.90;;;;;;4936647;29;20028;-81
2022/04/28 00:57:20;;;;;;;1.52;1.42;;;13.10;99.90;;;;;;4940364;28;20033;-81
2022/04/28 00:59:50;;;;;;;1.52;1.42;;;13.10;99.90;;;;;;4937856;29;20164;-81
2022/04/28 01:02:22;;;;;;;1.50;1.40;;;13.10;99.90;;;;;;4940399;28;20099;-81
2022/04/28 01:04:59;;;;;;;1.42;1.33;;;13.00;99.90;;;;;;4937784;29;20027;-81
2022/04/28 01:07:25;;;;;;;1.60;1.48;;;13.00;99.90;;;;;;4922023;29;20083;-81
2022/04/28 01:09:54;;;;;;;3.53;1.60;;;12.90;99.90;;;;;;4937793;29;20028;-81
2022/04/28 01:12:29;;;;;;;1.90;1.50;;;12.90;99.90;;;;;;4937424;28;20079;-81
2022/04/28 01:14:58;;;;;;;2.10;1.60;;;12.90;99.90;;;;;;4940000;29;20031;-81
2022/04/28 01:17:27;;;;;;;1.52;1.42;;;12.80;99.90;;;;;;4924656;29;20024;-80
2022/04/28 01:19:53;;;;;;;1.58;1.48;;;12.80;99.90;;;;;;4929563;29;20031;-81
2022/04/28 01:22:22;;;;;;;2.20;1.40;;;12.70;99.90;;;;;;4926557;29;20406;-82
2022/04/28 01:24:48;;;;;;;2.00;1.50;;;12.70;99.90;;;;;;4950418;28;20027;-81
2022/04/28 01:27:29;;;;;;;4.05;1.45;;;12.70;99.90;;;;;;4945855;28;20482;-81
2022/04/28 01:30:10;;;;;;;1.23;1.23;;;12.70;99.90;;;;;;4951060;28;20031;-81
2022/04/28 01:32:45;;;;;;;1.40;1.30;;;12.60;99.90;;;;;;4943986;28;20016;-82
2022/04/28 01:35:23;;;;;;;2.22;1.45;;;12.60;99.90;;;;;;4949875;28;20419;-82
2022/04/28 01:38:02;;;;;;;1.65;1.55;;;12.60;99.90;;;;;;4940858;28;20083;-81
2022/04/28 01:40:31;;;;;;;1.85;1.10;;;12.60;99.90;;;;;;4922535;28;20649;-81
2022/04/28 01:43:03;;;;;;;2.97;1.85;;;12.60;99.90;;;;;;4926632;29;20406;-81
2022/04/28 01:48:41;;;;;;;1.77;1.35;;;12.60;99.90;;;;;;4915989;29;20062;-81
2022/04/28 01:56:51;;;;;;;1.77;1.50;;;12.60;99.90;;;;;;4942886;28;20115;-81
2022/04/28 01:59:20;;;;;;;1.60;1.50;;;12.50;99.90;;;;;;4937954;29;20039;-81
2022/04/28 02:01:46;;;;;;;2.13;1.65;;;12.60;99.90;;;;;;4943640;28;20020;-82
2022/04/28 02:04:12;;;;;;;1.30;1.20;;;12.60;99.90;;;;;;4921698;29;20123;-83
2022/04/28 02:06:37;;;;;;;5.85;1.73;;;12.60;99.90;;;;;;4923451;28;20031;-83
2022/04/28 02:09:03;;;;;;;7.32;1.90;;;12.60;99.90;;;;;;4942094;28;20547;-83
2022/04/28 02:11:29;;;;;;;1.73;1.63;;;12.60;99.90;;;;;;4940631;28;20048;-83
2022/04/28 02:13:55;;;;;;;2.00;1.73;;;12.60;99.90;;;;;;4944168;29;20400;-83
2022/04/28 02:16:20;;;;;;;1.60;1.50;;;12.70;99.90;;;;;;4923370;29;20184;-83
2022/04/28 02:18:46;;;;;;;2.03;1.70;;;12.80;99.90;;;;;;4940324;29;20038;-83
2022/04/28 02:21:12;;;;;;;2.17;1.90;;;12.80;99.90;;;;;;4938957;28;20042;-83
2022/04/28 02:23:37;;;;;;;1.75;1.65;;;12.90;99.90;;;;;;4943558;29;20027;-83
2022/04/28 02:26:13;;;;;;;2.83;2.00;;;12.90;99.90;;;;;;4944822;28;20479;-81
2022/04/28 02:28:38;;;;;;;3.17;1.85;;;12.90;99.90;;;;;;4939993;29;20475;-83
2022/04/28 02:31:05;;;;;;;3.15;2.20;;;12.90;99.90;;;;;;4939290;28;20046;-83
2022/04/28 02:33:30;;;;;;;1.90;1.60;;;12.90;99.90;;;;;;4942454;29;20110;-82
2022/04/28 02:35:56;;;;;;;1.88;1.65;;;12.90;99.90;;;;;;4947012;28;20495;-82
2022/04/28 02:38:23;;;;;;;2.20;2.00;;;12.90;99.90;;;;;;4941467;29;20020;-82
2022/04/28 02:40:48;;;;;;;2.75;1.80;;;12.80;99.90;;;;;;4947713;28;20039;-82
2022/04/28 02:43:14;;;;;;;1.70;1.60;;;12.80;99.90;;;;;;4949108;28;20024;-83
2022/04/28 02:45:40;;;;;;;1.60;1.50;;;12.70;99.90;;;;;;4947750;28;20474;-83
2022/04/28 02:48:06;;;;;;;5.78;2.05;;;12.60;99.90;;;;;;4939960;29;20106;-82
2022/04/28 02:50:31;;;;;;;2.05;1.80;;;12.50;99.90;;;;;;4939374;29;20399;-83
2022/04/28 02:52:57;;;;;;;5.43;1.70;;;12.40;99.90;;;;;;4927509;29;20032;-82
2022/04/28 02:55:23;;;;;;;2.38;1.70;;;12.30;99.90;;;;;;4938034;29;20407;-82
2022/04/28 02:57:48;;;;;;;1.90;1.80;;;12.20;99.90;;;;;;4923156;29;20118;-82
2022/04/28 03:00:14;;;;;;;2.00;1.80;;;12.20;99.90;;;;;;4949015;28;20040;-82
2022/04/28 03:02:40;;;;;;;2.03;1.80;;;12.20;99.90;;;;;;4943125;28;20042;-82
2022/04/28 03:05:07;;;;;;;3.83;2.00;;;12.30;99.90;;;;;;4948961;28;20558;-83
2022/04/28 03:13:12;;;;;;;2.15;1.73;;;12.20;99.90;;;;;;4939675;29;20055;-82
2022/04/28 03:15:39;;;;;;;2.25;1.73;;;12.20;99.90;;;;;;4921170;28;20395;-83
2022/04/28 03:18:05;;;;;;;2.88;2.05;;;12.00;99.90;;;;;;4939845;28;20031;-82
2022/04/28 03:20:31;;;;;;;1.70;1.60;;;11.90;99.90;;;;;;4928908;29;20518;-82
2022/04/28 03:22:56;;;;;;;2.10;1.90;;;11.80;99.90;;;;;;4922689;29;20032;-82
2022/04/28 03:25:22;;;;;;;2.38;1.60;;;11.60;99.90;;;;;;4920406;29;20028;-82
2022/04/28 03:27:48;;;;;;;4.15;2.03;;;11.50;99.90;;;;;;4943307;28;20595;-80
2022/04/28 03:30:14;;;;;;;2.65;1.70;;;11.30;99.90;;;;;;4937253;29;20148;-81
2022/04/28 03:32:42;;;;;;;3.38;2.00;;;11.30;99.90;;;;;;4939302;28;20051;-81
2022/04/28 03:35:10;;;;;;;2.53;2.00;;;11.20;99.90;;;;;;4947614;28;20046;-81
2022/04/28 03:37:36;;;;;;;5.25;2.20;;;11.10;99.90;;;;;;4939280;28;20035;-81
2022/04/28 03:40:02;;;;;;;1.88;1.77;;;11.10;99.90;;;;;;4938203;28;20061;-81
2022/04/28 03:42:28;;;;;;;3.42;2.45;;;11.10;99.90;;;;;;4940000;28;20067;-80
2022/04/28 03:44:54;;;;;;;4.00;2.17;;;11.00;99.90;;;;;;4921483;28;20173;-80
2022/04/28 03:47:23;;;;;;;3.47;2.53;;;11.00;99.90;;;;;;4920777;28;20154;-81
2022/04/28 03:49:49;;;;;;;3.42;2.08;;;11.00;99.90;;;;;;4921265;29;20028;-81
2022/04/28 03:52:14;;;;;;;5.70;2.28;;;11.00;99.90;;;;;;4926651;29;20526;-81
2022/04/28 03:54:40;;;;;;;2.45;2.08;;;11.00;99.90;;;;;;4949419;28;20039;-81
2022/04/28 03:57:06;;;;;;;3.30;2.40;;;11.00;99.90;;;;;;4939793;28;20059;-81
2022/04/28 03:59:32;;;;;;;4.85;2.30;;;11.10;99.90;;;;;;4919043;29;20063;-81
2022/04/28 04:01:58;;;;;;;2.35;1.90;;;11.10;99.90;;;;;;4926625;28;20075;-82
2022/04/28 04:04:24;;;;;;;2.22;2.00;;;11.10;99.90;;;;;;4936525;29;20032;-82
2022/04/28 04:06:50;;;;;;;3.30;2.05;;;11.10;99.90;;;;;;4942380;28;20039;-82
2022/04/28 04:09:15;;;;;;;3.35;1.92;;;11.20;99.90;;;;;;4918689;29;20035;-82
2022/04/28 04:11:41;;;;;;;6.50;2.20;;;11.20;99.90;;;;;;4943318;28;20403;-82
2022/04/28 04:14:07;;;;;;;4.70;2.28;;;11.10;99.90;;;;;;4932502;29;20036;-82
2022/04/28 04:16:32;;;;;;;3.70;2.00;;;11.20;99.90;;;;;;4941246;28;20076;-82
2022/04/28 04:18:58;;;;;;;5.38;2.08;;;11.20;99.90;;;;;;4948905;28;20039;-82
2022/04/28 04:21:27;;;;;;;4.18;2.20;;;11.20;99.90;;;;;;4939788;28;20067;-82
2022/04/28 04:23:53;;;;;;;2.90;2.10;;;11.20;99.90;;;;;;4938207;29;20032;-82
2022/04/28 04:26:18;;;;;;;2.58;2.33;;;11.10;99.90;;;;;;4939165;28;20062;-81
2022/04/28 04:28:44;;;;;;;2.22;1.92;;;11.10;99.90;;;;;;4943690;29;20038;-81
2022/04/28 04:33:54;;;;;;;3.90;2.20;;;11.20;99.90;;;;;;4943787;28;20034;-80
2022/04/28 04:36:20;;;;;;;1.95;1.85;;;11.30;99.90;;;;;;4941231;28;20505;-81
2022/04/28 04:38:46;;;;;;;2.97;1.73;;;11.30;99.90;;;;;;4930857;29;20063;-80
2022/04/28 04:41:12;;;;;;;2.97;2.45;;;11.40;99.90;;;;;;4925983;29;20031;-80
2022/04/28 04:43:39;;;;;;;2.05;1.85;;;11.50;99.90;;;;;;4920898;29;20072;-80
2022/04/28 04:46:04;;;;;;;2.80;2.30;;;11.60;99.90;;;;;;4939453;28;20036;-81
2022/04/28 04:48:31;;;;;;;2.38;2.15;;;11.60;99.90;;;;;;4921147;29;20031;-81
2022/04/28 04:50:57;;;;;;;2.90;2.30;;;11.70;99.90;;;;;;4923946;28;20027;-84
2022/04/28 04:53:23;;;;;;;2.50;2.30;;;11.80;99.90;;;;;;4924772;29;20034;-84
2022/04/28 04:55:49;;;;;;;2.40;2.20;;;11.90;99.90;;;;;;4924834;28;20438;-83
2022/04/28 04:58:15;;;;;;;6.30;2.25;;;12.00;99.90;;;;;;4946546;28;20086;-83
2022/04/28 05:00:40;;;;;;;4.32;2.20;;;12.00;99.90;;;;;;4951050;28;20047;-84
2022/04/28 05:03:06;;;;;;;2.90;2.42;;;12.00;99.90;;;;;;4943913;28;20086;-84
2022/04/28 05:05:32;;;;;;;6.43;2.38;;;12.00;99.90;;;;;;4941310;29;20027;-84
2022/04/28 05:07:57;;;;;;;2.28;2.08;;;12.10;99.90;;;;;;4943579;28;20055;-84
2022/04/28 05:10:23;;;;;;;3.53;2.05;;;12.20;99.90;;;;;;4929998;29;20035;-84
2022/04/28 05:12:49;;;;;;;2.60;2.28;;;12.20;99.90;;;;;;4932481;29;20055;-83
2022/04/28 05:15:14;;;;;;;3.25;2.22;;;12.30;99.90;;;;;;4950037;28;20090;-84
2022/04/28 05:17:40;;;;;;;2.40;2.10;;;12.30;99.90;;;;;;4926354;29;20654;-84
2022/04/28 05:20:07;;;;;;;4.93;2.45;;;12.40;99.90;;;;;;4939346;29;20067;-84
2022/04/28 05:22:33;;;;;;;2.33;2.13;;;12.40;99.90;;;;;;4942863;28;20027;-85
2022/04/28 05:24:59;;;;;;;2.50;2.30;;;12.50;99.90;;;;;;4941500;28;20082;-85
2022/04/28 05:27:25;;;;;;;4.03;2.20;;;12.60;99.90;;;;;;4942459;28;20036;-85
2022/04/28 05:29:52;;;;;;;1.98;1.88;;;12.60;99.90;;;;;;4932566;29;20507;-85
2022/04/28 05:32:18;;;;;;;4.18;2.22;;;12.70;99.90;;;;;;4941689;28;20062;-85
2022/04/28 05:34:43;;;;;;;6.53;2.40;;;12.80;99.90;;;;;;4932043;29;20130;-86
2022/04/28 05:37:12;;;;;;;2.40;1.95;;;12.90;99.90;;;;;;4941887;28;20027;-86
2022/04/28 05:39:41;;;;;;;2.97;2.13;;;13.00;99.90;;;;;;4940874;28;20046;-85
2022/04/28 05:42:07;;;;;;;2.58;2.00;;;13.20;99.90;;;;;;4944445;28;20026;-86
2022/04/28 05:47:24;;;;;;;3.40;2.20;;;13.40;99.90;;;;;;4941704;28;20502;-84
2022/04/28 05:49:50;;;;;;;2.13;1.88;;;13.50;99.90;;;;;;4922370;29;20031;-85
2022/04/28 05:52:16;;;;;;;2.60;2.40;;;13.50;99.90;;;;;;4924386;29;20111;-83
2022/04/28 05:54:41;;;;;;;3.78;2.47;;;13.60;99.90;;;;;;4922306;29;20474;-83
2022/04/28 05:57:07;;;;;;;4.30;2.03;;;13.70;99.90;;;;;;4927724;28;20027;-83
2022/04/28 05:59:33;;;;;;;2.90;2.22;;;13.80;99.90;;;;;;4949421;28;20398;-84
2022/04/28 06:01:59;;;;;;;6.70;2.30;;;13.90;99.90;;;;;;4925325;28;20273;-84
2022/04/28 06:04:25;;;;;;;2.63;2.20;;;14.00;99.90;;;;;;4938294;29;20110;-84
2022/04/28 06:06:51;;;;;;;4.95;2.28;;;14.00;99.90;;;;;;4925685;29;20031;-83
2022/04/28 06:09:17;;;;;;;3.97;1.98;;;14.10;99.90;;;;;;4952918;28;20034;-83
2022/04/28 06:11:43;;;;;;;5.05;2.35;;;14.10;99.90;;;;;;4943111;28;20406;-83
2022/04/28 06:14:09;;;;;;;6.05;2.30;;;14.20;99.90;;;;;;4921861;29;20031;-83
2022/04/28 06:16:35;;;;;;;2.25;1.98;;;14.20;99.90;;;;;;4927027;29;20023;-84
2022/04/28 06:19:01;;;;;;;2.97;1.98;;;14.30;99.90;;;;;;4925130;29;20127;-84
2022/04/28 06:21:26;;;;;;;2.22;1.85;;;14.40;99.90;;;;;;4925240;29;20034;-84
2022/04/28 06:23:52;;;;;;;2.60;2.40;;;14.50;99.90;;;;;;4949293;28;20034;-81
2022/04/28 06:26:18;;;;;;;3.25;2.33;;;14.50;99.90;;;;;;4928698;29;20388;-83
2022/04/28 06:28:43;;;;;;;2.20;2.00;;;14.60;99.90;;;;;;4923434;29;20036;-83
2022/04/28 06:31:09;;;;;;;3.25;2.20;;;14.70;99.90;;;;;;4923847;28;20035;-83
2022/04/28 06:33:39;;;;;;;3.17;2.28;;;14.70;99.90;;;;;;4941752;29;20123;-84
2022/04/28 06:36:04;;;;;;;4.32;2.05;;;14.80;99.90;;;;;;4941649;28;20062;-83
2022/04/28 06:38:30;;;;;;;2.13;1.65;;;14.90;99.90;;;;;;4930903;29;20051;-83
2022/04/28 06:40:59;;;;;;;4.18;2.05;;;15.00;99.90;;;;;;4947480;28;20040;-84
2022/04/28 06:43:28;;;;;;;3.58;2.10;;;15.10;99.90;;;;;;4939966;28;20058;-83
2022/04/28 06:48:37;;;;;;;3.17;2.28;;;15.30;99.90;;;;;;4940068;29;20091;-83
2022/04/28 06:51:03;;;;;;;4.03;2.10;;;15.40;99.90;;;;;;4924039;29;20039;-83
2022/04/28 06:53:29;;;;;;;4.25;2.22;;;15.60;99.90;;;;;;4922827;29;20019;-83
2022/04/28 06:55:54;;;;;;;2.70;2.30;;;15.60;99.90;;;;;;4942745;28;20114;-83
2022/04/28 06:58:21;;;;;;;2.97;2.15;;;15.70;99.90;;;;;;4939810;28;20024;-83
2022/04/28 07:00:49;;;;;;;3.38;2.33;;;15.70;99.90;;;;;;4922187;28;20043;-83
2022/04/28 07:03:14;;;;;;;3.42;2.10;;;15.80;99.90;;;;;;4951196;28;20078;-83
2022/04/28 07:05:40;;;;;;;3.83;2.20;;;15.90;99.90;;;;;;4935021;28;20450;-83
2022/04/28 07:08:06;;;;;;;3.45;2.10;;;15.90;99.90;;;;;;4950647;28;20137;-83
2022/04/28 07:10:32;;;;;;;5.05;2.70;;;16.00;99.90;;;;;;4950051;29;20542;-83
2022/04/28 07:12:58;;;;;;;4.47;2.78;;;16.00;99.90;;;;;;4934729;28;20039;-83
2022/04/28 07:15:24;;;;;;;5.68;2.60;;;16.20;99.90;;;;;;4930471;29;20031;-84
2022/04/28 07:17:50;;;;;;;3.08;2.78;;;16.20;99.90;;;;;;4941841;28;20146;-83
2022/04/28 07:20:15;;;;;;;5.72;2.80;;;16.20;99.90;;;;;;4957045;28;20040;-83
2022/04/28 07:22:41;;;;;;;3.20;2.53;;;16.30;99.90;;;;;;4930484;29;20023;-83
2022/04/28 07:25:07;;;;;;;2.80;2.35;;;16.30;99.90;;;;;;4922937;29;20513;-83
2022/04/28 07:27:33;;;;;;;2.90;2.22;;;16.30;99.90;;;;;;4922424;29;20024;-83
2022/04/28 07:29:58;;;;;;;3.25;2.50;;;16.40;99.90;;;;;;4938780;29;20030;-83
2022/04/28 07:32:24;;;;;;;3.65;2.03;;;16.50;99.90;;;;;;4932276;29;20501;-83
2022/04/28 07:34:50;;;;;;;6.20;2.70;;;16.50;99.90;;;;;;4943625;28;20095;-83
2022/04/28 07:37:15;;;;;;;3.13;2.10;;;16.50;99.90;;;;;;4923925;28;20031;-83
2022/04/28 07:39:41;;;;;;;2.65;2.35;;;16.60;99.90;;;;;;4949348;29;20030;-83
2022/04/28 07:42:07;;;;;;;3.08;2.50;;;16.60;99.90;;;;;;4927268;29;20099;-83
2022/04/28 07:44:34;;;;;;;6.10;2.85;;;16.60;99.90;;;;;;4926699;29;20028;-83
2022/04/28 07:47:00;;;;;;;3.90;2.20;;;16.70;99.90;;;;;;4923042;29;20033;-83
2022/04/28 07:49:26;;;;;;;2.90;2.30;;;16.70;99.90;;;;;;4919845;29;20028;-83
2022/04/28 07:51:51;;;;;;;4.82;2.70;;;16.80;99.80;;;;;;4926741;29;20019;-83
2022/04/28 07:54:17;;;;;;;3.05;2.40;;;16.90;99.90;;;;;;4917936;29;20069;-83
2022/04/28 07:56:45;;;;;;;2.92;2.65;;;17.00;99.60;;;;;;4939069;28;20035;-85
2022/04/28 07:59:11;;;;;;;5.60;2.92;;;17.00;97.10;;;;;;4927231;29;20025;-80
2022/04/28 08:01:38;;;;;;;2.35;2.15;;;16.90;97.80;;;;;;4923994;29;20051;-83
2022/04/28 08:04:04;;;;;;;3.30;2.70;;;17.00;98.80;;;;;;4918887;29;20091;-82
2022/04/28 08:06:30;;;;;;;4.15;2.45;;;17.00;97.40;;;;;;4924745;29;20562;-83
2022/04/28 08:08:56;;;;;;;4.30;2.90;;;17.10;96.80;;;;;;4929981;29;20020;-83
2022/04/28 08:11:21;;;;;;;2.75;2.30;;;17.10;94.70;;;;;;4925552;29;20094;-83
2022/04/28 08:13:48;;;;;;;9.73;2.58;;;17.10;96.30;;;;;;4912466;29;20490;-82
2022/04/28 08:16:14;;;;;;;2.70;2.22;;;17.20;96.10;;;;;;4921998;29;20075;-83
2022/04/28 08:18:40;;;;;;;4.07;2.67;;;17.20;95.20;;;;;;4929126;29;20311;-83
2022/04/28 08:21:08;;;;;;;3.05;2.63;;;17.20;94.50;;;;;;4926148;29;20090;-83
2022/04/28 08:23:38;;;;;;;4.90;2.67;;;17.30;94.50;;;;;;4928688;29;20032;-83
2022/04/28 08:26:04;;;;;;;3.33;2.42;;;17.20;94.70;;;;;;4925479;29;20040;-83
2022/04/28 08:28:30;;;;;;;3.70;2.60;;;17.30;93.40;;;;;;4910448;29;20042;-83
2022/04/28 08:30:56;;;;;;;2.80;2.60;;;17.40;94.00;;;;;;4924622;29;20079;-83
2022/04/28 08:33:22;;;;;;;3.78;2.45;;;17.50;92.40;;;;;;4904265;29;20032;-83
2022/04/28 08:35:47;;;;;;;3.05;2.75;;;17.50;95.00;;;;;;4919326;29;20118;-83
2022/04/28 08:38:13;;;;;;;4.90;2.53;;;17.60;92.80;;;;;;4904935;29;20480;-83
2022/04/28 08:40:40;;;;;;;3.97;2.67;;;17.70;92.60;;;;;;4902391;29;20040;-83
2022/04/28 08:43:06;;;;;;;3.58;2.58;;;17.80;91.90;;;;;;4919175;29;20075;-83
2022/04/28 08:45:39;;;;;;;3.42;2.22;;;17.70;92.00;;;;;;4917167;29;20032;-83
2022/04/28 08:48:07;;;;;;;5.47;2.80;;;17.70;93.10;;;;;;4920149;29;20032;-83
2022/04/28 08:50:33;;;;;;;6.10;2.22;;;17.80;91.80;;;;;;4899989;29;20398;-82
2022/04/28 08:53:00;;;;;;;4.20;2.50;;;18.00;91.70;;;;;;4925758;29;20395;-83
2022/04/28 08:55:26;;;;;;;3.83;2.47;;;18.00;92.20;;;;;;4927134;29;20036;-83
2022/04/28 08:57:52;;;;;;;7.03;2.90;;;18.20;91.00;;;;;;4926349;29;20028;-82
2022/04/28 09:00:18;;;;;;;4.82;2.38;;;18.40;93.40;;;;;;4899037;29;20448;-83
2022/04/28 09:02:44;;;;;;;6.53;2.75;;;18.50;90.10;;;;;;4920733;29;20499;-82
2022/04/28 09:05:10;;;;;;;3.08;2.42;;;18.40;87.80;;;;;;4901526;29;20036;-83
2022/04/28 09:07:45;;;;;;;4.25;2.58;;;18.30;88.90;;;;;;4900986;29;20034;-83
2022/04/28 09:10:32;;;;;;;3.17;2.58;;;18.40;89.80;;;;;;4927328;29;20056;-82
2022/04/28 09:15:50;;;;;;;3.35;2.35;;;18.60;87.00;;;;;;4925088;29;20529;-82
2022/04/28 09:18:17;;;;;;;4.40;2.30;;;18.70;90.70;;;;;;4920443;29;20024;-82
2022/04/28 09:20:47;;;;;;;2.83;2.22;;;18.80;87.30;;;;;;4918997;29;20075;-82
2022/04/28 09:23:13;;;;;;;9.65;2.60;;;18.90;86.00;;;;;;4927086;29;20484;-82
2022/04/28 09:25:40;;;;;;;3.50;2.33;;;18.90;87.30;;;;;;4927977;29;20054;-82
2022/04/28 09:28:09;;;;;;;3.30;2.45;;;19.00;86.60;;;;;;4920142;29;20028;-82
2022/04/28 09:30:47;;;;;;;3.28;2.65;;;19.00;87.30;;;;;;4928171;29;20130;-83
2022/04/28 09:33:15;;;;;;;5.75;2.75;;;19.10;84.90;;;;;;4925507;29;20080;-82
2022/04/28 09:35:53;;;;;;;6.38;2.45;;;19.10;83.40;;;;;;4928717;29;20064;-83
2022/04/28 09:38:20;;;;;;;3.88;2.40;;;19.20;82.90;;;;;;4923054;29;20060;-82
2022/04/28 09:43:32;;;;;;;2.90;2.25;;;19.10;87.60;;;;;;4926647;29;20144;-82
2022/04/28 09:45:59;;;;;;;3.13;2.42;;;19.10;83.70;;;;;;4926701;29;20060;-82
2022/04/28 09:48:30;;;;;;;6.10;2.40;;;19.20;85.50;;;;;;4914818;29;20028;-82
2022/04/28 09:51:04;;;;;;;2.75;2.35;;;19.20;81.30;;;;;;4928847;29;20048;-82
2022/04/28 09:53:36;;;;;;;3.45;2.70;;;19.20;82.60;;;;;;4927908;29;20048;-82
2022/04/28 09:56:03;;;;;;;4.43;2.03;;;19.10;79.70;;;;;;4922498;29;20021;-82
2022/04/28 09:58:29;;;;;;;6.10;2.78;;;19.00;81.30;;;;;;4927214;29;20099;-82
2022/04/28 10:01:00;;;;;;;3.25;2.65;;;19.10;80.80;;;;;;4921317;29;20091;-82
2022/04/28 10:03:29;;;;;;;4.68;3.05;;;19.20;81.20;;;;;;4923786;29;20028;-82
2022/04/28 10:05:57;;;;;;;2.97;2.10;;;19.30;82.20;;;;;;4920349;29;20392;-83
2022/04/28 10:08:25;;;;;;;4.30;2.70;;;19.40;82.70;;;;;;4930534;29;20030;-82
2022/04/28 10:10:55;;;;;;;4.07;2.63;;;19.50;81.80;;;;;;4930462;29;20019;-82
2022/04/28 10:13:21;;;;;;;3.13;2.28;;;19.60;78.80;;;;;;4922664;29;20135;-83
2022/04/28 10:15:56;;;;;;;5.43;2.72;;;19.60;82.80;;;;;;4919899;29;20039;-83
2022/04/28 10:18:35;;;;;;;2.60;2.40;;;19.70;79.30;;;;;;4922532;29;20391;-83
2022/04/28 10:21:05;;;;;;;4.18;2.80;;;19.60;78.80;;;;;;4904821;29;20044;-83
2022/04/28 10:35:04;;;;;;;4.72;2.42;;;20.00;83.40;;;;;;4925932;29;20058;-83
2022/04/28 10:37:35;;;;;;;2.72;2.25;;;20.10;81.30;;;;;;4928132;29;20119;-82
2022/04/28 10:40:03;;;;;;;4.93;2.40;;;20.10;78.30;;;;;;4930277;29;20063;-83
2022/04/28 10:42:55;;;;;;;5.80;2.70;;;20.20;78.90;;;;;;4924353;29;20060;-83
2022/04/28 10:45:23;;;;;;;2.47;2.07;;;20.20;80.50;;;;;;4929473;29;20571;-83
2022/04/28 10:48:31;;;;;;;7.13;2.60;;;20.30;82.30;;;;;;4909268;29;20797;-83
2022/04/28 10:51:19;;;;;;;5.50;2.40;;;20.50;80.30;;;;;;4921647;29;20087;-83
2022/04/28 10:54:05;;;;;;;2.75;2.17;;;20.50;83.30;;;;;;4926077;29;20293;-84
2022/04/28 10:56:40;;;;;;;3.70;2.40;;;20.70;82.20;;;;;;4924271;29;20035;-83
2022/04/28 10:59:32;;;;;;;3.20;2.15;;;20.80;79.10;;;;;;4924532;29;20543;-83
2022/04/28 11:02:21;;;;;;;5.18;2.60;;;20.80;83.80;;;;;;4927510;29;20543;-82
2022/04/28 11:04:54;;;;;;;5.20;2.45;;;20.90;78.40;;;;;;4913551;29;20398;-83
2022/04/28 11:07:23;;;;;;;;;;;21.00;84.20;;;;;;4912512;29;20023;-82
2022/04/28 11:09:57;;;;;;;3.28;2.05;;;21.00;81.10;;;;;;4928503;29;19911;-83
2022/04/28 11:12:25;;;;;;;3.20;2.28;;;21.00;78.80;;;;;;4910017;29;20134;-83
2022/04/28 11:15:05;;;;;;;4.47;2.65;;;21.10;82.00;;;;;;4913699;29;20148;-83
2022/04/28 11:17:33;;;;;;;3.28;2.45;;;21.20;78.90;;;;;;4903538;29;20040;-83
2022/04/28 11:20:03;;;;;;;3.42;2.35;;;21.30;77.20;;;;;;4909335;29;20043;-84
2022/04/28 11:22:29;;;;;;;4.60;2.60;;;21.40;80.40;;;;;;4910599;29;20131;-83
2022/04/28 11:24:59;;;;;;;2.53;2.00;;;21.50;77.80;;;;;;4910567;29;20521;-83
2022/04/28 11:27:29;;;;;;;4.65;2.42;;;21.50;78.00;;;;;;4907527;29;20031;-83
2022/04/28 11:29:57;;;;;;;3.38;2.05;;;21.60;79.40;;;;;;4902257;29;20604;-83
2022/04/28 11:32:24;;;;;;;11.40;2.60;;;21.50;79.10;;;;;;4903308;29;20040;-81
2022/04/28 11:34:52;;;;;;;4.75;2.33;;;21.60;81.40;;;;;;4911607;29;20059;-88
2022/04/28 11:37:23;;;;;;;3.97;2.25;;;21.80;79.30;;;;;;4906611;29;20016;-82
2022/04/28 11:39:53;;;;;;;5.40;2.20;;;21.90;75.60;;;;;;4905662;29;20139;-83
2022/04/28 11:42:20;;;;;;;4.78;2.42;;;21.90;77.00;;;;;;4907160;29;20100;-84
2022/04/28 11:44:53;;;;;;;1.92;1.83;;;21.90;74.70;;;;;;4899159;29;20031;-84
2022/04/28 11:47:30;;;;;;;4.60;2.35;;;22.00;76.20;;;;;;4910104;29;20057;-96
2022/04/28 11:49:58;;;;;;;4.15;2.75;;;22.10;72.90;;;;;;4918832;29;20057;-93
2022/04/28 11:52:28;;;;;;;6.97;3.08;;;22.20;75.20;;;;;;4905829;29;20528;-85
2022/04/28 11:54:59;;;;;;;8.57;2.83;;;22.20;73.70;;;;;;4925871;29;20113;-94
2022/04/28 11:57:24;;;;;;;3.50;2.40;;;22.00;74.70;;;;;;4910307;29;20033;-89
2022/04/28 11:59:51;;;;;;;4.97;2.53;;;22.10;77.00;;;;;;4915538;29;20452;-87
2022/04/28 12:02:30;;;;;;;8.23;3.28;;;22.30;71.90;;;;;;4901336;29;20029;-87
2022/04/28 12:04:57;;;;;;;4.55;2.78;;;23.90;72.80;;;;;;4917966;29;20039;-86
2022/04/28 12:07:30;;;;;;;4.32;2.63;;;28.10;67.30;;;;;;4903972;29;20024;-87
2022/04/28 12:15:27;;;;;;;2.75;2.40;;;34.30;53.70;;;;;;4917929;29;20038;-87
2022/04/28 12:21:05;;;;;;;2.42;2.20;;;34.90;50.10;;;;;;4927760;29;20062;-82
2022/04/28 12:23:33;;;;;;;6.00;2.53;;;35.00;50.70;;;;;;4922066;29;20108;-78
2022/04/28 12:26:06;;;;;;;2.85;2.42;;;35.20;48.80;;;;;;4924623;29;20063;-80
2022/04/28 12:28:32;;;;;;;4.75;2.40;;;35.80;47.20;;;;;;4929591;28;20026;-79
2022/04/28 12:30:59;;;;;;;6.10;2.20;;;36.40;47.00;;;;;;4921131;29;20027;-78
2022/04/28 12:33:37;;;;;;;2.60;2.40;;;37.10;47.80;;;;;;4922352;29;20044;-80
2022/04/28 12:36:13;;;;;;;3.63;2.63;;;36.40;46.60;;;;;;4919777;29;20023;-80
2022/04/28 12:38:52;;;;;;;2.63;2.22;;;37.10;45.70;;;;;;4928282;29;20391;-80
2022/04/28 12:41:27;;;;;;;3.30;2.25;;;39.30;45.10;;;;;;4925938;29;20031;-80
2022/04/28 12:43:59;;;;;;;4.07;2.35;;;40.70;43.40;;;;;;4935341;29;20027;-78
2022/04/28 12:46:39;;;;;;;6.10;2.50;;;41.30;41.20;;;;;;4921796;29;20041;-79
2022/04/28 12:49:09;;;;;;;4.38;2.42;;;41.10;40.50;;;;;;4923172;29;20554;-79
2022/04/28 12:51:46;;;;;;;3.28;2.40;;;39.90;40.90;;;;;;4918537;29;20447;-79
2022/04/28 12:54:17;;;;;;;3.63;2.35;;;39.40;41.00;;;;;;4921505;29;20089;-81
2022/04/28 12:56:52;;;;;;;6.55;2.63;;;38.00;41.50;;;;;;4921366;29;20028;-80
2022/04/28 12:59:18;;;;;;;6.07;2.30;;;38.20;43.00;;;;;;4920165;29;20032;-80
2022/04/28 13:01:46;;;;;;;4.22;2.03;;;40.10;40.50;;;;;;4924812;29;20046;-81
2022/04/28 13:04:23;;;;;;;5.28;2.40;;;41.80;41.10;;;;;;4922819;29;20742;-81
2022/04/28 13:06:50;;;;;;;3.58;2.22;;;42.20;38.40;;;;;;4929145;29;20030;-80
2022/04/28 13:09:16;;;;;;;4.40;2.00;;;40.00;39.00;;;;;;4916105;29;20027;-79
2022/04/28 13:11:47;;;;;;;2.97;2.00;;;38.70;39.80;;;;;;4917153;29;20043;-77
2022/04/28 13:14:16;;;;;;;3.03;2.13;;;38.60;40.00;;;;;;4926970;29;20055;-81
2022/04/28 13:16:42;;;;;;;3.45;2.05;;;38.70;39.60;;;;;;4923853;29;20020;-80
2022/04/28 13:19:09;;;;;;;3.33;2.15;;;39.80;39.80;;;;;;4931668;29;20119;-81
2022/04/28 13:21:37;;;;;;;3.10;2.40;;;41.50;39.30;;;;;;4924542;29;20242;-77
2022/04/28 13:24:03;;;;;;;6.00;2.45;;;41.40;38.50;;;;;;4909022;29;20020;-83
2022/04/28 13:26:30;;;;;;;2.90;2.10;;;40.30;38.70;;;;;;4930783;29;20035;-80
2022/04/28 13:28:59;;;;;;;4.43;2.08;;;38.60;39.50;;;;;;4933410;29;20027;-83
2022/04/28 13:31:28;;;;;;;6.30;2.15;;;39.10;39.70;;;;;;4929631;29;20035;-80
2022/04/28 13:33:58;;;;;;;3.20;2.33;;;39.50;38.50;;;;;;4922062;29;20084;-82
2022/04/28 13:36:24;;;;;;;4.50;2.50;;;40.20;38.70;;;;;;4925289;29;20047;-82
2022/04/28 13:38:50;;;;;;;5.78;1.73;;;39.40;39.10;;;;;;4913937;29;20562;-82
2022/04/28 13:41:16;;;;;;;4.63;2.33;;;39.00;39.20;;;;;;4929901;29;20076;-79
2022/04/28 13:43:43;;;;;;;2.08;1.88;;;39.60;38.80;;;;;;4927465;29;20024;-80
2022/04/28 13:46:11;;;;;;;2.95;2.35;;;40.70;38.00;;;;;;4923084;29;20040;-77